Time;durP1;ratioP1;P1;durP2;ratioP2;P2;SDS_P1;SDS_P2;PMS_P1;PMS_P2;Temp;Humidity;BMP_temperature;BMP_pressure;BME280_temperature;BME280_humidity;BME280_pressure;Samples;Min_cycle;Max_cycle;Signal;HPM_P1;HPM_P2
2022/03/17 00:01:46;;;;;;;51.63;30.53;;;11.00;95.10;;;;;;5015569;28;20873;-47
2022/03/17 00:04:13;;;;;;;49.50;29.53;;;11.00;95.10;;;;;;5022662;28;20481;-47
2022/03/17 00:06:41;;;;;;;44.43;24.53;;;;;;;;;;5020563;28;20570;-47
2022/03/17 00:09:08;;;;;;;59.83;24.63;;;11.00;95.00;;;;;;5006683;28;20502;-47
2022/03/17 00:11:36;;;;;;;38.33;25.10;;;11.00;95.10;;;;;;5023610;28;21530;-47
2022/03/17 00:14:03;;;;;;;41.13;23.90;;;10.90;95.00;;;;;;5018734;28;20480;-47
2022/03/17 00:16:32;;;;;;;42.07;24.97;;;11.00;94.90;;;;;;5014887;28;20512;-48
2022/03/17 00:19:07;;;;;;;45.33;25.77;;;11.00;94.90;;;;;;5020627;28;21187;-47
2022/03/17 00:21:34;;;;;;;41.40;25.90;;;11.00;95.00;;;;;;5020676;28;20484;-47
2022/03/17 00:24:01;;;;;;;43.97;25.40;;;11.00;94.90;;;;;;5017649;28;20663;-47
2022/03/17 00:26:28;;;;;;;42.53;24.43;;;11.00;94.90;;;;;;5013825;28;20900;-48
2022/03/17 00:28:55;;;;;;;46.40;27.00;;;11.00;94.90;;;;;;5022392;28;21062;-47
2022/03/17 00:31:23;;;;;;;38.47;22.53;;;10.90;94.90;;;;;;5028229;28;21016;-47
2022/03/17 00:33:52;;;;;;;42.50;26.07;;;10.90;95.00;;;;;;5013375;28;20902;-47
2022/03/17 00:36:18;;;;;;;50.33;24.27;;;10.90;95.20;;;;;;5015932;28;21237;-47
2022/03/17 00:38:45;;;;;;;39.00;24.70;;;11.10;95.40;;;;;;5015432;28;20517;-47
2022/03/17 00:41:12;;;;;;;34.20;22.70;;;10.90;95.10;;;;;;5017564;28;20483;-48
2022/03/17 00:43:39;;;;;;;34.63;22.83;;;10.90;95.10;;;;;;5018945;28;20479;-47
2022/03/17 00:46:06;;;;;;;39.57;23.67;;;10.90;95.10;;;;;;5017893;28;20495;-48
2022/03/17 00:48:32;;;;;;;39.83;21.60;;;10.90;95.10;;;;;;5019207;28;20549;-48
2022/03/17 00:51:01;;;;;;;43.27;24.70;;;;;;;;;;5014050;28;20476;-47
2022/03/17 00:53:28;;;;;;;44.27;22.47;;;10.90;95.00;;;;;;4997450;28;20475;-47
2022/03/17 00:55:54;;;;;;;37.07;23.40;;;10.90;95.10;;;;;;5011405;28;20617;-47
2022/03/17 00:58:22;;;;;;;37.33;21.80;;;10.90;95.10;;;;;;5028515;28;20473;-47
2022/03/17 01:00:49;;;;;;;39.53;22.20;;;10.90;95.10;;;;;;5017127;28;20544;-47
2022/03/17 01:03:16;;;;;;;38.43;21.97;;;;;;;;;;5022299;28;20523;-49
2022/03/17 01:05:43;;;;;;;49.33;23.60;;;10.90;95.10;;;;;;5024124;28;21035;-48
2022/03/17 01:08:11;;;;;;;32.17;20.30;;;10.80;95.20;;;;;;5023165;28;20878;-50
2022/03/17 01:10:38;;;;;;;43.03;24.40;;;10.90;95.20;;;;;;5020463;28;20483;-47
2022/03/17 01:13:05;;;;;;;43.40;23.13;;;10.90;95.30;;;;;;5022491;28;20841;-48
2022/03/17 01:15:32;;;;;;;43.17;19.23;;;10.80;95.20;;;;;;5024832;28;20486;-48
2022/03/17 01:17:59;;;;;;;30.70;19.00;;;10.80;95.00;;;;;;5028162;28;20531;-47
2022/03/17 01:20:26;;;;;;;37.60;20.33;;;10.80;94.90;;;;;;5021420;28;20487;-47
2022/03/17 01:22:53;;;;;;;33.40;20.53;;;10.90;94.90;;;;;;5021337;28;20984;-47
2022/03/17 01:25:21;;;;;;;31.80;19.93;;;10.80;94.80;;;;;;5017566;28;20491;-47
2022/03/17 01:27:48;;;;;;;37.17;20.90;;;10.80;94.80;;;;;;5014436;28;20497;-47
2022/03/17 01:30:15;;;;;;;32.10;20.37;;;10.80;94.80;;;;;;5024647;28;20501;-47
2022/03/17 01:32:42;;;;;;;44.40;19.97;;;10.80;95.00;;;;;;5022811;28;20509;-47
2022/03/17 01:35:09;;;;;;;39.33;19.23;;;;;;;;;;5012498;28;20488;-47
2022/03/17 01:37:37;;;;;;;32.33;21.87;;;10.80;95.10;;;;;;5033776;28;20533;-48
2022/03/17 01:40:04;;;;;;;49.17;24.53;;;10.80;95.10;;;;;;5016224;28;20478;-47
2022/03/17 01:42:33;;;;;;;43.60;22.60;;;10.80;95.20;;;;;;5018314;28;20501;-47
2022/03/17 01:45:00;;;;;;;47.40;22.90;;;10.80;95.20;;;;;;5019926;28;20558;-48
2022/03/17 01:47:29;;;;;;;35.63;21.43;;;10.80;95.20;;;;;;5022425;28;20486;-47
2022/03/17 01:49:57;;;;;;;47.70;23.93;;;10.70;95.20;;;;;;5019730;28;20486;-47
2022/03/17 01:52:25;;;;;;;40.33;21.20;;;10.70;95.20;;;;;;5023233;28;20487;-47
2022/03/17 01:54:53;;;;;;;41.27;21.90;;;10.60;95.30;;;;;;5023023;28;21176;-46
2022/03/17 01:57:21;;;;;;;38.63;21.90;;;10.50;95.30;;;;;;5025526;28;20486;-47
2022/03/17 01:59:50;;;;;;;34.30;21.60;;;10.50;95.40;;;;;;5018101;28;20486;-46
2022/03/17 02:02:18;;;;;;;37.67;22.00;;;10.40;95.40;;;;;;5020862;28;21370;-47
2022/03/17 02:04:47;;;;;;;37.87;23.83;;;10.50;95.70;;;;;;5020769;28;21127;-46
2022/03/17 02:07:14;;;;;;;40.20;24.37;;;;;;;;;;5018027;28;20486;-47
2022/03/17 02:09:42;;;;;;;38.80;24.30;;;10.50;95.80;;;;;;5019892;28;20490;-47
2022/03/17 02:14:57;;;;;;;31.20;18.63;;;10.50;95.50;;;;;;5019688;28;20476;-47
2022/03/17 02:17:24;;;;;;;28.37;16.80;;;10.50;95.40;;;;;;5012912;28;20566;-47
2022/03/17 02:19:51;;;;;;;36.90;19.67;;;;;;;;;;5027727;28;20502;-46
2022/03/17 02:22:20;;;;;;;37.67;23.60;;;10.40;95.70;;;;;;5005708;28;20503;-47
2022/03/17 02:27:41;;;;;;;52.67;24.27;;;10.50;95.70;;;;;;5012235;28;20486;-47
2022/03/17 02:30:10;;;;;;;40.80;23.10;;;10.60;95.70;;;;;;5017811;28;20487;-47
2022/03/17 02:32:37;;;;;;;42.90;24.13;;;10.50;95.70;;;;;;4996435;28;20505;-47
2022/03/17 02:35:06;;;;;;;37.73;20.27;;;10.60;95.60;;;;;;5035216;28;20492;-47
2022/03/17 02:37:33;;;;;;;39.40;22.90;;;10.50;95.60;;;;;;5002189;28;20491;-47
2022/03/17 02:40:02;;;;;;;36.73;22.47;;;10.40;95.60;;;;;;5014588;28;20482;-46
2022/03/17 02:42:30;;;;;;;37.40;23.23;;;10.40;95.70;;;;;;5022084;28;21643;-46
2022/03/17 02:44:58;;;;;;;37.90;24.33;;;10.40;95.90;;;;;;5021071;28;20540;-46
2022/03/17 02:47:25;;;;;;;36.37;23.53;;;;;;;;;;5003941;28;20574;-47
2022/03/17 02:49:54;;;;;;;40.57;25.10;;;10.40;95.90;;;;;;5032291;28;20486;-46
2022/03/17 02:52:22;;;;;;;38.90;24.03;;;10.40;95.90;;;;;;5022273;28;20479;-47
2022/03/17 02:54:49;;;;;;;29.13;15.33;;;10.40;95.80;;;;;;5017497;28;20488;-47
2022/03/17 02:57:18;;;;;;;30.03;20.23;;;;;;;;;;5020749;28;20483;-47
2022/03/17 02:59:46;;;;;;;42.00;21.40;;;10.30;95.90;;;;;;5018366;28;20835;-46
2022/03/17 03:02:14;;;;;;;43.67;22.63;;;10.40;95.80;;;;;;5018085;28;21255;-47
2022/03/17 03:04:41;;;;;;;48.23;23.77;;;10.40;95.90;;;;;;5024676;28;20473;-47
2022/03/17 03:07:08;;;;;;;38.50;20.23;;;10.40;95.80;;;;;;5021397;28;20490;-47
2022/03/17 03:09:35;;;;;;;37.20;21.50;;;10.40;95.70;;;;;;5011651;28;20489;-47
2022/03/17 03:12:02;;;;;;;30.80;18.73;;;10.40;95.70;;;;;;5018635;28;20522;-46
2022/03/17 03:14:30;;;;;;;36.17;19.90;;;10.40;95.60;;;;;;5007984;28;20493;-47
2022/03/17 03:16:58;;;;;;;37.10;22.40;;;10.50;95.60;;;;;;5015367;28;20971;-46
2022/03/17 03:19:25;;;;;;;29.80;18.83;;;10.40;95.50;;;;;;5019219;28;20496;-46
2022/03/17 03:21:52;;;;;;;47.17;22.10;;;10.40;95.50;;;;;;5018636;28;20481;-47
2022/03/17 03:24:19;;;;;;;46.07;22.40;;;;;;;;;;5021682;28;20495;-47
2022/03/17 03:26:46;;;;;;;39.03;22.00;;;10.30;95.50;;;;;;5016688;28;20490;-47
2022/03/17 03:29:19;;;;;;;32.10;21.10;;;10.20;95.80;;;;;;5019760;28;21104;-46
2022/03/17 03:31:47;;;;;;;39.93;20.50;;;10.20;95.90;;;;;;5020316;28;20524;-48
2022/03/17 03:34:14;;;;;;;36.47;21.00;;;10.20;96.20;;;;;;5015869;28;20479;-46
2022/03/17 03:39:25;;;;;;;38.70;22.77;;;10.10;96.40;;;;;;5014830;28;20493;-46
2022/03/17 03:41:51;;;;;;;38.80;22.40;;;10.20;96.30;;;;;;5020522;28;20589;-46
2022/03/17 03:44:18;;;;;;;43.77;24.20;;;;;;;;;;5018229;28;20490;-48
2022/03/17 03:46:46;;;;;;;32.53;21.10;;;10.30;96.00;;;;;;5020824;28;20487;-47
2022/03/17 03:49:13;;;;;;;48.70;23.70;;;10.40;95.80;;;;;;5018884;28;20482;-47
2022/03/17 03:51:40;;;;;;;37.90;21.50;;;10.30;95.90;;;;;;5020400;28;21009;-47
2022/03/17 03:56:51;;;;;;;46.93;26.10;;;10.10;96.40;;;;;;5008105;28;20490;-47
2022/03/17 03:59:20;;;;;;;41.27;22.33;;;10.10;96.40;;;;;;5019158;28;21185;-55
2022/03/17 04:01:49;;;;;;;35.63;20.60;;;10.20;96.20;;;;;;5019436;28;20483;-47
2022/03/17 04:04:18;;;;;;;45.20;22.43;;;;;;;;;;5018829;28;20479;-48
2022/03/17 04:06:46;;;;;;;37.80;19.00;;;10.20;96.10;;;;;;5009252;28;20852;-47
2022/03/17 04:09:13;;;;;;;42.53;20.90;;;10.20;96.30;;;;;;5016032;28;21010;-47
2022/03/17 04:11:41;;;;;;;40.77;19.27;;;;;;;;;;5015147;28;20515;-48
2022/03/17 04:14:08;;;;;;;33.20;19.67;;;10.20;96.00;;;;;;5023116;28;20631;-47
2022/03/17 04:16:35;;;;;;;28.73;17.20;;;10.10;96.10;;;;;;5018900;28;20568;-48
2022/03/17 04:19:04;;;;;;;36.80;20.03;;;10.00;96.20;;;;;;5012639;28;20490;-47
2022/03/17 04:21:31;;;;;;;40.27;19.53;;;10.00;96.40;;;;;;5026476;28;20487;-48
2022/03/17 04:23:58;;;;;;;33.63;20.53;;;9.80;97.20;;;;;;5020333;28;21297;-47
2022/03/17 04:26:25;;;;;;;46.90;22.37;;;9.80;97.50;;;;;;5019375;28;20491;-47
2022/03/17 04:28:52;;;;;;;38.47;23.27;;;9.90;97.30;;;;;;5017520;28;21876;-51
2022/03/17 04:31:20;;;;;;;35.50;21.00;;;10.00;96.70;;;;;;5019572;28;20478;-47
2022/03/17 04:33:47;;;;;;;38.73;20.97;;;10.00;96.60;;;;;;5010109;28;20531;-47
2022/03/17 04:36:16;;;;;;;35.70;21.53;;;10.00;96.40;;;;;;5016996;28;20859;-47
2022/03/17 04:38:43;;;;;;;41.33;23.03;;;10.00;96.50;;;;;;5017067;28;22085;-47
2022/03/17 04:41:10;;;;;;;40.27;22.53;;;10.00;96.70;;;;;;5015756;28;20485;-47
2022/03/17 04:43:38;;;;;;;37.80;21.90;;;9.90;97.50;;;;;;5018676;28;20496;-47
2022/03/17 04:46:07;;;;;;;37.27;20.10;;;10.00;96.80;;;;;;5019153;28;20486;-47
2022/03/17 04:48:34;;;;;;;50.77;22.97;;;10.10;96.70;;;;;;5003134;28;21259;-47
2022/03/17 04:51:01;;;;;;;33.93;20.80;;;10.10;96.50;;;;;;5022999;28;20484;-47
2022/03/17 04:53:32;;;;;;;32.10;19.40;;;10.20;96.40;;;;;;5019789;28;21032;-47
2022/03/17 04:56:00;;;;;;;35.53;22.07;;;10.20;96.30;;;;;;5013928;28;20577;-47
2022/03/17 04:58:28;;;;;;;34.33;19.10;;;10.20;96.10;;;;;;5018623;28;20564;-47
2022/03/17 05:00:55;;;;;;;46.60;21.00;;;10.30;96.10;;;;;;5007896;28;20506;-47
2022/03/17 05:03:22;;;;;;;29.93;16.73;;;10.30;96.00;;;;;;5012983;28;20478;-47
2022/03/17 05:05:49;;;;;;;32.20;18.57;;;10.30;96.00;;;;;;5005531;28;20478;-47
2022/03/17 05:08:16;;;;;;;41.43;18.00;;;;;;;;;;5024106;28;20488;-47
2022/03/17 05:10:47;;;;;;;44.00;18.50;;;10.30;96.00;;;;;;5016822;28;20474;-48
2022/03/17 05:13:15;;;;;;;34.10;20.20;;;10.10;96.20;;;;;;5018439;28;20493;-47
2022/03/17 05:15:42;;;;;;;44.00;21.80;;;10.00;96.60;;;;;;5016663;28;20481;-47
2022/03/17 05:18:09;;;;;;;40.60;22.67;;;10.00;96.80;;;;;;5017227;28;20519;-48
2022/03/17 05:20:36;;;;;;;41.07;21.93;;;10.00;96.70;;;;;;5020981;28;20530;-47
2022/03/17 05:23:05;;;;;;;42.60;25.00;;;10.00;96.60;;;;;;4999249;28;20683;-47
2022/03/17 05:25:32;;;;;;;32.67;20.97;;;10.00;96.60;;;;;;5020402;28;20474;-47
2022/03/17 05:28:01;;;;;;;32.73;20.50;;;10.10;96.60;;;;;;5018041;28;20842;-47
2022/03/17 05:30:28;;;;;;;37.80;23.33;;;10.10;96.50;;;;;;5015241;28;20486;-47
2022/03/17 05:32:55;;;;;;;40.63;23.40;;;10.10;96.60;;;;;;5013947;28;20885;-47
2022/03/17 05:35:22;;;;;;;33.67;20.83;;;10.10;96.50;;;;;;5017482;28;20487;-47
2022/03/17 05:37:50;;;;;;;40.37;21.90;;;10.20;96.50;;;;;;5006181;28;20529;-47
2022/03/17 05:40:18;;;;;;;34.17;22.37;;;10.20;96.40;;;;;;5026791;28;20478;-49
2022/03/17 05:42:46;;;;;;;37.33;22.30;;;;;;;;;;5017370;28;20484;-47
2022/03/17 05:45:16;;;;;;;34.33;20.97;;;10.20;96.40;;;;;;5016876;28;20540;-48
2022/03/17 05:47:44;;;;;;;44.80;22.43;;;;;;;;;;5018954;28;20557;-50
2022/03/17 05:50:14;;;;;;;35.07;21.60;;;10.20;96.40;;;;;;5015517;28;20521;-47
2022/03/17 05:52:42;;;;;;;38.83;20.63;;;10.10;96.40;;;;;;5005147;28;20704;-47
2022/03/17 05:55:09;;;;;;;40.97;22.20;;;10.00;96.70;;;;;;5026715;28;20956;-47
2022/03/17 05:57:36;;;;;;;39.30;22.07;;;9.90;97.40;;;;;;5022229;28;20478;-48
2022/03/17 06:00:05;;;;;;;32.97;20.30;;;10.00;96.80;;;;;;5022803;28;20539;-47
2022/03/17 06:02:34;;;;;;;38.50;21.13;;;10.00;96.60;;;;;;5020675;28;20583;-48
2022/03/17 06:05:01;;;;;;;35.80;20.83;;;10.10;96.60;;;;;;5019571;28;20493;-47
2022/03/17 06:07:36;;;;;;;32.73;19.77;;;10.10;96.40;;;;;;5020633;28;21026;-48
2022/03/17 06:10:03;;;;;;;30.70;19.80;;;10.10;96.50;;;;;;5018373;28;20556;-47
2022/03/17 06:12:30;;;;;;;35.50;22.47;;;10.10;96.40;;;;;;5017837;28;20487;-48
2022/03/17 06:14:58;;;;;;;33.67;21.53;;;10.20;96.40;;;;;;5019532;28;20507;-48
2022/03/17 06:17:38;;;;;;;39.80;22.70;;;10.10;96.50;;;;;;5009874;28;20605;-48
2022/03/17 06:20:07;;;;;;;41.37;23.50;;;10.00;96.80;;;;;;5033249;28;20590;-47
2022/03/17 06:22:34;;;;;;;35.23;20.60;;;10.00;96.80;;;;;;5014838;28;20497;-48
2022/03/17 06:25:01;;;;;;;31.40;17.43;;;10.00;96.70;;;;;;5033036;28;20503;-48
2022/03/17 06:27:28;;;;;;;28.97;18.63;;;10.00;96.70;;;;;;5020668;28;20490;-48
2022/03/17 06:29:55;;;;;;;31.87;18.80;;;10.10;96.60;;;;;;5020050;28;20492;-47
2022/03/17 06:32:22;;;;;;;36.93;20.50;;;10.10;96.60;;;;;;5020213;28;20478;-48
2022/03/17 06:34:50;;;;;;;31.53;20.10;;;10.10;96.70;;;;;;5023021;28;20492;-47
2022/03/17 06:37:16;;;;;;;29.73;19.37;;;10.00;96.70;;;;;;5019402;28;20510;-47
2022/03/17 06:39:43;;;;;;;31.50;18.60;;;9.90;97.30;;;;;;5023169;28;20543;-47
2022/03/17 06:42:10;;;;;;;28.17;17.63;;;9.90;97.60;;;;;;5019775;28;20999;-47
2022/03/17 06:44:36;;;;;;;31.27;18.33;;;9.70;97.80;;;;;;5020532;28;20514;-47
2022/03/17 06:47:04;;;;;;;50.53;22.83;;;9.70;98.10;;;;;;5016157;28;20484;-47
2022/03/17 06:49:31;;;;;;;47.67;25.50;;;9.60;98.30;;;;;;5016564;28;20488;-47
2022/03/17 06:51:59;;;;;;;45.20;25.37;;;9.50;98.50;;;;;;5028867;28;20474;-48
2022/03/17 06:54:26;;;;;;;46.23;24.77;;;9.50;98.70;;;;;;5021547;28;21079;-48
2022/03/17 06:56:53;;;;;;;50.70;29.60;;;9.40;98.80;;;;;;5020715;28;20493;-48
2022/03/17 06:59:20;;;;;;;52.10;29.17;;;9.40;98.90;;;;;;5022939;28;20487;-47
2022/03/17 07:01:46;;;;;;;50.63;28.03;;;9.40;99.10;;;;;;5022178;28;20474;-47
2022/03/17 07:04:13;;;;;;;45.63;25.17;;;9.50;99.20;;;;;;5018937;28;20500;-47
2022/03/17 07:06:40;;;;;;;51.40;28.23;;;;;;;;;;5018858;28;20496;-47
2022/03/17 07:09:08;;;;;;;58.07;29.27;;;9.70;99.10;;;;;;5018277;28;20846;-47
2022/03/17 07:11:35;;;;;;;44.93;26.40;;;9.80;99.20;;;;;;5021831;28;20494;-46
2022/03/17 07:14:02;;;;;;;44.23;27.13;;;;;;;;;;5019422;28;20484;-47
2022/03/17 07:16:29;;;;;;;41.17;26.00;;;10.20;98.40;;;;;;5019717;28;20483;-47
2022/03/17 07:18:55;;;;;;;38.10;22.53;;;10.30;98.00;;;;;;5019087;28;20487;-47
2022/03/17 07:21:22;;;;;;;45.43;24.87;;;10.40;97.80;;;;;;5020415;28;20798;-48
2022/03/17 07:23:50;;;;;;;37.17;22.57;;;10.50;97.60;;;;;;5021371;28;20483;-46
2022/03/17 07:26:19;;;;;;;42.43;25.17;;;;;;;;;;5019102;28;20471;-46
2022/03/17 07:28:46;;;;;;;47.57;25.37;;;10.70;97.50;;;;;;5012796;28;20844;-46
2022/03/17 07:31:13;;;;;;;47.63;27.40;;;10.80;97.40;;;;;;5017738;28;20486;-46
2022/03/17 07:33:40;;;;;;;41.20;24.50;;;10.90;97.30;;;;;;5018873;28;20485;-46
2022/03/17 07:36:07;;;;;;;49.97;25.83;;;10.90;97.20;;;;;;5015844;28;20487;-46
2022/03/17 07:38:34;;;;;;;50.80;27.57;;;;;;;;;;5013650;28;20486;-46
2022/03/17 07:41:01;;;;;;;42.87;27.93;;;11.00;97.10;;;;;;5019708;28;21020;-46
2022/03/17 07:43:29;;;;;;;47.27;27.27;;;11.00;97.10;;;;;;5021195;28;20493;-46
2022/03/17 07:45:56;;;;;;;49.30;30.03;;;11.00;97.20;;;;;;5018325;28;20491;-47
2022/03/17 07:48:22;;;;;;;47.53;26.77;;;11.10;97.30;;;;;;5017264;28;20475;-47
2022/03/17 07:50:50;;;;;;;45.00;27.63;;;;;;;;;;5018770;28;20490;-46
2022/03/17 07:53:17;;;;;;;47.07;26.57;;;11.20;96.90;;;;;;5019054;28;20479;-48
2022/03/17 07:55:44;;;;;;;44.90;27.30;;;11.20;96.90;;;;;;5019692;28;20591;-47
2022/03/17 07:58:12;;;;;;;52.70;28.90;;;11.30;96.70;;;;;;5019541;28;20549;-47
2022/03/17 08:00:42;;;;;;;52.07;28.97;;;11.30;96.70;;;;;;5014873;28;20507;-47
2022/03/17 08:03:09;;;;;;;46.03;28.23;;;11.40;96.90;;;;;;5014819;28;20541;-47
2022/03/17 08:05:36;;;;;;;43.07;27.27;;;11.40;96.70;;;;;;5012763;28;20491;-47
2022/03/17 08:08:04;;;;;;;51.30;28.43;;;11.50;96.80;;;;;;5017594;28;20976;-47
2022/03/17 08:10:30;;;;;;;49.43;28.97;;;11.60;96.80;;;;;;5018711;28;20492;-48
2022/03/17 08:12:58;;;;;;;48.20;28.60;;;11.60;96.90;;;;;;5019814;28;20480;-48
2022/03/17 08:15:26;;;;;;;46.80;29.67;;;11.70;96.90;;;;;;5019893;28;21179;-53
2022/03/17 08:17:54;;;;;;;45.33;26.73;;;11.80;96.70;;;;;;5021150;28;20479;-48
2022/03/17 08:20:21;;;;;;;51.83;31.27;;;11.80;96.60;;;;;;5018800;28;20479;-47
2022/03/17 08:22:49;;;;;;;46.60;29.30;;;11.90;96.60;;;;;;5018690;28;20476;-47
2022/03/17 08:25:16;;;;;;;50.37;30.60;;;12.00;96.50;;;;;;5016196;28;20515;-47
2022/03/17 08:27:43;;;;;;;49.27;31.07;;;11.90;96.40;;;;;;5021016;28;20494;-47
2022/03/17 08:30:11;;;;;;;49.03;29.53;;;12.00;96.40;;;;;;5017209;28;21038;-47
2022/03/17 08:32:39;;;;;;;53.43;31.63;;;12.00;96.10;;;;;;5020443;28;20992;-47
2022/03/17 08:35:08;;;;;;;56.70;34.10;;;12.00;95.90;;;;;;5007421;28;20506;-47
2022/03/17 08:37:39;;;;;;;51.60;32.47;;;;;;;;;;5026015;28;20479;-47
2022/03/17 08:40:07;;;;;;;55.90;35.83;;;11.90;95.80;;;;;;5013788;28;20574;-47
2022/03/17 08:42:34;;;;;;;54.90;33.60;;;11.80;96.50;;;;;;5020877;28;20531;-47
2022/03/17 08:45:01;;;;;;;60.30;33.67;;;11.80;96.50;;;;;;5017889;28;20490;-48
2022/03/17 08:50:13;;;;;;;73.33;30.37;;;11.70;96.00;;;;;;5006523;28;21034;-47
2022/03/17 08:52:40;;;;;;;72.63;34.23;;;;;;;;;;5028538;28;20490;-47
2022/03/17 08:55:10;;;;;;;62.23;33.13;;;;;;;;;;5015785;28;20490;-47
2022/03/17 08:57:37;;;;;;;61.60;35.20;;;11.90;96.30;;;;;;5020022;28;20533;-47
2022/03/17 09:00:06;;;;;;;56.50;34.30;;;12.00;96.30;;;;;;5018527;28;20482;-47
2022/03/17 09:02:33;;;;;;;56.23;33.20;;;12.20;96.40;;;;;;5021244;28;20833;-47
2022/03/17 09:05:01;;;;;;;53.70;34.20;;;12.40;95.90;;;;;;5020659;28;20487;-47
2022/03/17 09:07:30;;;;;;;47.77;30.40;;;12.50;95.40;;;;;;5019375;28;20480;-47
2022/03/17 09:09:57;;;;;;;53.87;33.90;;;12.50;95.50;;;;;;5018213;28;20491;-48
2022/03/17 09:12:24;;;;;;;55.53;32.70;;;12.60;95.80;;;;;;5020076;28;20484;-48
2022/03/17 09:14:51;;;;;;;53.37;32.90;;;12.60;95.50;;;;;;5018942;28;20494;-47
2022/03/17 09:17:17;;;;;;;52.10;33.27;;;12.60;95.50;;;;;;5014643;28;20496;-47
2022/03/17 09:19:44;;;;;;;50.77;32.57;;;12.50;95.50;;;;;;5019641;28;20492;-48
2022/03/17 09:22:11;;;;;;;53.27;32.43;;;12.60;95.50;;;;;;5021432;28;20540;-48
2022/03/17 09:24:39;;;;;;;57.03;34.07;;;12.70;95.50;;;;;;5022080;28;21004;-48
2022/03/17 09:27:06;;;;;;;57.63;34.33;;;12.80;95.70;;;;;;5023194;28;20510;-48
2022/03/17 09:29:33;;;;;;;56.43;35.47;;;;;;;;;;5020080;28;21164;-47
2022/03/17 09:32:00;;;;;;;63.87;37.20;;;12.90;95.80;;;;;;5023232;28;20965;-47
2022/03/17 09:34:27;;;;;;;58.07;36.50;;;13.00;95.70;;;;;;5020408;28;20495;-47
2022/03/17 09:36:54;;;;;;;66.30;35.53;;;;;;;;;;5023371;28;20487;-47
2022/03/17 09:42:07;;;;;;;78.70;39.40;;;13.10;94.80;;;;;;5003062;28;20495;-47
2022/03/17 09:44:34;;;;;;;67.47;39.60;;;13.10;94.90;;;;;;5031421;28;20489;-47
2022/03/17 09:47:03;;;;;;;66.13;39.97;;;13.10;94.80;;;;;;5022683;28;20572;-47
2022/03/17 09:49:30;;;;;;;66.80;39.67;;;13.10;94.80;;;;;;5022006;28;20474;-47
2022/03/17 09:51:58;;;;;;;64.03;40.37;;;13.10;94.70;;;;;;5021761;28;20499;-48
2022/03/17 09:54:25;;;;;;;67.10;37.67;;;13.10;94.80;;;;;;5022665;28;20571;-48
2022/03/17 09:56:52;;;;;;;65.60;38.70;;;;;;;;;;5020155;28;20484;-47
2022/03/17 09:59:20;;;;;;;67.53;40.70;;;13.10;94.60;;;;;;5017601;28;20976;-48
2022/03/17 10:01:47;;;;;;;61.30;36.50;;;13.00;94.60;;;;;;5021550;28;20502;-48
2022/03/17 10:04:15;;;;;;;62.57;38.20;;;12.90;94.50;;;;;;5012513;28;20483;-48
2022/03/17 10:06:42;;;;;;;57.10;36.17;;;12.90;94.60;;;;;;5030999;28;20480;-48
2022/03/17 10:09:09;;;;;;;56.20;34.10;;;12.80;94.80;;;;;;5020315;28;20493;-49
2022/03/17 10:11:37;;;;;;;64.20;39.17;;;12.70;95.00;;;;;;5021476;28;20496;-48
2022/03/17 10:14:05;;;;;;;60.43;38.70;;;12.70;95.10;;;;;;5021614;28;20549;-48
2022/03/17 10:16:34;;;;;;;54.10;36.60;;;12.60;95.00;;;;;;5022079;28;20491;-48
2022/03/17 10:19:02;;;;;;;66.80;36.87;;;12.60;95.10;;;;;;5014976;28;21017;-48
2022/03/17 10:21:30;;;;;;;67.03;39.20;;;12.60;95.20;;;;;;5022197;28;20488;-48
2022/03/17 10:24:00;;;;;;;65.30;41.07;;;12.60;95.20;;;;;;5018805;28;20490;-48
2022/03/17 10:26:38;;;;;;;68.40;37.50;;;12.60;95.20;;;;;;5018035;28;20563;-48
2022/03/17 10:29:07;;;;;;;70.70;34.37;;;12.60;95.20;;;;;;5014231;28;20482;-48
2022/03/17 10:31:50;;;;;;;66.73;39.87;;;12.60;95.30;;;;;;5024149;28;20482;-48
2022/03/17 10:34:16;;;;;;;63.33;36.80;;;12.60;95.30;;;;;;5025618;28;20543;-48
2022/03/17 10:36:45;;;;;;;61.27;37.20;;;;;;;;;;5024562;28;21124;-48
2022/03/17 10:39:12;;;;;;;67.13;36.90;;;12.70;95.20;;;;;;5020545;28;20576;-50
2022/03/17 10:41:41;;;;;;;75.37;41.80;;;12.70;95.40;;;;;;5022259;28;21199;-48
2022/03/17 10:44:11;;;;;;;62.60;38.30;;;12.70;95.40;;;;;;5017288;28;20578;-48
2022/03/17 10:46:40;;;;;;;81.40;37.93;;;12.70;95.40;;;;;;5019378;28;20561;-48
2022/03/17 10:49:07;;;;;;;63.73;37.37;;;12.80;95.50;;;;;;5019162;28;20561;-48
2022/03/17 10:51:37;;;;;;;74.47;38.03;;;12.70;95.40;;;;;;5013709;28;20554;-48
2022/03/17 10:54:05;;;;;;;74.00;39.03;;;12.80;95.60;;;;;;5019106;28;20487;-47
2022/03/17 10:56:32;;;;;;;63.37;36.47;;;12.70;95.50;;;;;;5014382;28;21044;-48
2022/03/17 10:59:01;;;;;;;66.43;37.80;;;12.70;95.50;;;;;;5020362;28;20519;-48
2022/03/17 11:01:39;;;;;;;65.70;38.33;;;12.70;95.60;;;;;;5019420;28;20568;-48
2022/03/17 11:04:07;;;;;;;74.27;40.17;;;;;;;;;;5020866;28;20809;-48
2022/03/17 11:06:34;;;;;;;64.37;36.73;;;12.70;95.70;;;;;;5010819;28;20501;-48
2022/03/17 11:09:01;;;;;;;64.00;39.07;;;12.70;95.90;;;;;;5030488;28;20486;-48
2022/03/17 11:11:29;;;;;;;67.30;37.50;;;12.70;95.90;;;;;;5017810;28;20550;-48
2022/03/17 11:13:56;;;;;;;73.70;37.90;;;12.70;96.00;;;;;;5011532;28;20556;-48
2022/03/17 11:16:30;;;;;;;80.47;41.83;;;12.70;96.10;;;;;;5017698;28;20582;-48
2022/03/17 11:18:59;;;;;;;74.33;40.67;;;12.70;96.30;;;;;;5019226;28;21095;-48
2022/03/17 11:21:30;;;;;;;71.83;39.03;;;12.70;96.40;;;;;;5017745;28;20498;-48
2022/03/17 11:24:04;;;;;;;67.30;36.70;;;12.70;96.30;;;;;;5027866;28;20487;-48
2022/03/17 11:26:35;;;;;;;67.73;38.20;;;12.70;96.40;;;;;;5020241;28;20853;-48
2022/03/17 11:29:06;;;;;;;77.80;42.13;;;;;;;;;;5011202;28;20512;-48
2022/03/17 11:31:53;;;;;;;87.10;42.67;;;12.60;96.20;;;;;;5033334;28;21037;-48
2022/03/17 11:34:42;;;;;;;78.97;39.93;;;;;;;;;;5013928;28;20551;-48
2022/03/17 11:37:32;;;;;;;78.23;40.20;;;12.60;96.40;;;;;;5021160;28;20989;-48
2022/03/17 11:40:04;;;;;;;75.53;40.60;;;;;;;;;;5000119;28;20545;-49
2022/03/17 11:42:34;;;;;;;69.23;38.30;;;12.60;96.20;;;;;;5019591;28;20491;-48
2022/03/17 11:45:17;;;;;;;68.80;38.97;;;12.60;96.10;;;;;;5030697;28;20494;-48
2022/03/17 11:47:45;;;;;;;76.57;39.90;;;12.60;96.20;;;;;;5007305;28;20565;-47
2022/03/17 11:50:31;;;;;;;68.67;38.90;;;12.70;96.20;;;;;;5019653;28;20991;-47
2022/03/17 11:52:59;;;;;;;66.63;37.97;;;12.70;96.10;;;;;;5014039;28;20983;-47
2022/03/17 11:55:37;;;;;;;61.83;37.17;;;12.80;96.00;;;;;;5021018;28;20480;-48
2022/03/17 11:58:24;;;;;;;77.73;38.33;;;12.90;96.10;;;;;;5011103;28;20609;-47
2022/03/17 12:00:53;;;;;;;61.03;35.27;;;12.90;95.90;;;;;;5002318;28;20557;-47
2022/03/17 12:03:30;;;;;;;60.23;34.87;;;12.90;95.90;;;;;;5024540;28;20999;-47
2022/03/17 12:06:18;;;;;;;68.37;33.70;;;12.90;95.90;;;;;;5009833;28;20489;-47
2022/03/17 12:08:59;;;;;;;54.37;30.23;;;12.80;95.70;;;;;;5018782;28;20491;-47
2022/03/17 12:11:28;;;;;;;58.47;31.07;;;12.80;95.90;;;;;;5001902;28;20498;-48
2022/03/17 12:14:18;;;;;;;58.70;30.90;;;12.70;95.50;;;;;;5033713;28;20477;-48
2022/03/17 12:16:47;;;;;;;54.73;28.60;;;12.60;95.50;;;;;;5020272;28;20482;-47
2022/03/17 12:19:29;;;;;;;49.63;28.83;;;12.60;95.50;;;;;;5019053;28;20466;-48
2022/03/17 12:22:18;;;;;;;62.37;30.90;;;12.60;95.60;;;;;;5020651;28;20497;-48
2022/03/17 12:24:47;;;;;;;62.60;32.43;;;12.60;95.50;;;;;;5018252;28;20479;-47
2022/03/17 12:27:20;;;;;;;53.70;28.20;;;12.60;95.60;;;;;;5019107;28;20491;-47
2022/03/17 12:29:48;;;;;;;46.77;25.67;;;12.60;95.70;;;;;;5015413;28;20763;-46
2022/03/17 12:32:16;;;;;;;41.03;23.87;;;;;;;;;;5008437;28;20474;-47
2022/03/17 12:34:46;;;;;;;51.20;30.90;;;12.50;95.70;;;;;;5027860;28;20565;-48
2022/03/17 12:37:15;;;;;;;50.47;28.50;;;12.50;95.70;;;;;;5021120;28;21204;-46
2022/03/17 12:39:42;;;;;;;58.43;29.70;;;12.40;95.60;;;;;;5008628;28;20496;-47
2022/03/17 12:42:18;;;;;;;49.43;28.63;;;12.40;95.70;;;;;;5032463;28;20503;-47
2022/03/17 12:45:05;;;;;;;55.50;31.03;;;12.40;95.70;;;;;;5017327;28;20513;-48
2022/03/17 12:47:33;;;;;;;54.00;30.60;;;12.40;95.80;;;;;;5009741;28;20485;-48
2022/03/17 12:50:02;;;;;;;53.63;26.90;;;12.30;95.80;;;;;;5017948;28;20493;-48
2022/03/17 12:52:32;;;;;;;49.00;28.50;;;12.30;95.90;;;;;;5014798;28;20509;-48
2022/03/17 12:55:01;;;;;;;47.10;23.90;;;12.30;95.90;;;;;;5019412;28;20484;-48
2022/03/17 12:57:30;;;;;;;42.93;22.37;;;12.20;95.80;;;;;;5022038;28;20486;-47
2022/03/17 12:59:57;;;;;;;41.80;21.03;;;12.20;95.90;;;;;;5020907;28;20497;-46
2022/03/17 13:02:25;;;;;;;40.47;24.27;;;12.10;96.00;;;;;;5012639;28;20478;-48